createdAt,value
2023-11-13T00:08:06.126Z,8.00
2023-11-13T00:16:27.616Z,8.70
2023-11-13T00:24:49.413Z,8.80
2023-11-13T00:33:11.131Z,11.10
2023-11-13T00:41:33.904Z,9.30
2023-11-13T00:49:55.402Z,11.00
2023-11-13T00:58:18.279Z,10.20
2023-11-13T01:06:39.738Z,11.10
2023-11-13T01:15:02.567Z,10.60
2023-11-13T01:23:25.206Z,11.30
2023-11-13T01:31:47.001Z,11.30
2023-11-13T01:40:10.087Z,11.00
2023-11-13T01:48:31.794Z,10.60
2023-11-13T01:56:56.306Z,10.40
2023-11-13T02:05:18.126Z,9.30
2023-11-13T02:13:39.978Z,9.80
2023-11-13T02:22:01.716Z,8.90
2023-11-13T02:30:23.950Z,7.50
2023-11-13T02:38:47.828Z,7.20
2023-11-13T02:47:09.638Z,7.00
2023-11-13T02:55:31.760Z,6.30
2023-11-13T03:03:53.648Z,6.40
2023-11-13T03:12:15.326Z,5.40
2023-11-13T03:20:36.870Z,5.60
2023-11-13T03:28:58.417Z,5.90
2023-11-13T03:37:19.983Z,6.10
2023-11-13T03:45:41.545Z,6.90
2023-11-13T03:54:03.161Z,6.70
2023-11-13T04:02:28.948Z,8.20
2023-11-13T04:10:50.789Z,7.00
2023-11-13T04:19:13.168Z,8.60
2023-11-13T04:27:34.776Z,8.50
2023-11-13T04:35:58.406Z,9.50
2023-11-13T04:44:19.941Z,8.70
2023-11-13T04:52:41.830Z,9.00
2023-11-13T05:01:03.574Z,9.70
2023-11-13T05:09:27.120Z,9.90
2023-11-13T05:17:48.850Z,9.50
2023-11-13T05:26:10.442Z,10.20
2023-11-13T05:34:32.111Z,8.90
2023-11-13T05:42:54.685Z,9.40
2023-11-13T05:51:16.629Z,9.70
2023-11-13T05:59:38.194Z,9.70
2023-11-13T06:07:59.750Z,8.70
2023-11-13T06:16:21.485Z,9.70
2023-11-13T06:24:43.215Z,8.70
2023-11-13T06:33:05.066Z,8.80
2023-11-13T06:41:26.552Z,8.80
2023-11-13T06:49:49.448Z,9.20
2023-11-13T06:58:11.569Z,8.30
2023-11-13T07:06:33.069Z,8.70
2023-11-13T07:14:56.051Z,12.10
2023-11-13T07:23:18.001Z,18.70
2023-11-13T07:31:39.649Z,7.00
2023-11-13T07:40:01.455Z,8.70
2023-11-13T07:48:26.030Z,8.10
2023-11-13T07:56:48.491Z,7.70
2023-11-13T08:05:13.574Z,6.30
2023-11-13T08:13:35.735Z,5.90
2023-11-13T08:21:57.555Z,6.50
2023-11-13T08:30:23.722Z,6.60
2023-11-13T08:38:45.688Z,5.70
2023-11-13T08:47:07.338Z,6.00
2023-11-13T08:55:29.087Z,6.20
2023-11-13T09:03:50.916Z,5.10
2023-11-13T09:12:15.323Z,4.10
2023-11-13T09:20:42.509Z,4.30
2023-11-13T09:29:04.085Z,4.30
2023-11-13T09:37:25.586Z,4.50
2023-11-13T09:45:51.804Z,4.10
2023-11-13T09:54:14.098Z,75.60
2023-11-13T10:02:35.874Z,3.70
2023-11-13T10:10:57.719Z,2.90
2023-11-13T10:19:19.194Z,3.70
2023-11-13T10:27:46.833Z,2.90
2023-11-13T10:36:17.793Z,3.60
2023-11-13T10:44:39.477Z,3.40
2023-11-13T10:53:02.395Z,3.50
2023-11-13T11:01:26.113Z,4.10
2023-11-13T11:09:47.947Z,3.70
2023-11-13T11:18:40.678Z,3.30
2023-11-13T11:27:04.279Z,3.30
2023-11-13T11:35:29.561Z,3.20
2023-11-13T11:43:51.131Z,3.40
2023-11-13T11:52:13.284Z,2.90
2023-11-13T12:00:34.908Z,3.50
2023-11-13T12:08:56.422Z,2.90
2023-11-13T12:17:20.478Z,2.90
2023-11-13T12:25:42.409Z,3.50
2023-11-13T12:34:04.697Z,3.90
2023-11-13T12:42:27.468Z,3.70
2023-11-13T12:50:49.290Z,4.00
2023-11-13T12:59:12.814Z,3.30
2023-11-13T13:07:34.429Z,3.20
2023-11-13T13:15:55.966Z,2.70
2023-11-13T13:24:17.816Z,2.70
2023-11-13T13:32:39.386Z,2.80
2023-11-13T13:41:01.654Z,2.90
2023-11-13T13:49:24.901Z,2.20
2023-11-13T13:57:46.768Z,3.40
2023-11-13T14:06:12.998Z,2.30
2023-11-13T14:14:35.192Z,2.90
2023-11-13T14:22:59.904Z,2.50
2023-11-13T14:31:24.757Z,2.70
2023-11-13T14:39:46.423Z,4.90
2023-11-13T14:48:08.571Z,4.80
2023-11-13T14:56:30.277Z,12.00
2023-11-13T15:04:51.923Z,7.30
2023-11-13T15:13:14.914Z,7.50
2023-11-13T15:21:36.479Z,5.20
2023-11-13T15:29:58.041Z,10.10
2023-11-13T15:38:19.733Z,11.60
2023-11-13T15:46:42.955Z,13.40
2023-11-13T15:55:05.708Z,47.60
2023-11-13T16:03:33.492Z,19.30
2023-11-13T16:12:02.193Z,52.60
2023-11-13T16:20:25.056Z,62.90
2023-11-13T16:28:46.746Z,23.70
2023-11-13T16:37:09.195Z,29.80
2023-11-13T16:45:32.406Z,36.00
2023-11-13T16:53:54.992Z,26.10
2023-11-13T17:02:17.559Z,28.90
2023-11-13T17:10:40.611Z,25.60
2023-11-13T17:19:03.045Z,27.40
2023-11-13T17:27:25.643Z,19.40
2023-11-13T17:35:48.488Z,21.60
2023-11-13T17:44:10.145Z,22.80
2023-11-13T17:52:32.321Z,24.60
2023-11-13T18:00:54.867Z,25.70
2023-11-13T18:09:17.866Z,24.50
2023-11-13T18:17:41.847Z,28.30
2023-11-13T18:26:05.226Z,42.60
2023-11-13T18:34:27.017Z,45.00
2023-11-13T18:42:49.455Z,51.00
2023-11-13T18:51:17.115Z,44.00
2023-11-13T18:59:39.046Z,35.60
2023-11-13T19:08:01.086Z,53.80
2023-11-13T19:16:28.079Z,72.90
2023-11-13T19:24:49.891Z,71.40
2023-11-13T19:33:16.053Z,73.70
2023-11-13T19:41:38.425Z,77.10
2023-11-13T19:50:00.647Z,78.40
2023-11-13T19:58:23.472Z,75.30
2023-11-13T20:06:47.580Z,57.60
2023-11-13T20:15:11.519Z,45.20
2023-11-13T20:23:35.138Z,43.80
2023-11-13T20:31:57.455Z,45.70
2023-11-13T20:40:19.068Z,56.00
2023-11-13T20:48:40.934Z,47.90
2023-11-13T20:57:05.369Z,49.70
2023-11-13T21:05:30.513Z,38.40
2023-11-13T21:13:53.193Z,45.10
2023-11-13T21:22:14.844Z,29.50
2023-11-13T21:30:37.666Z,30.30
2023-11-13T21:38:59.367Z,27.00
2023-11-13T21:47:23.211Z,27.90
2023-11-13T21:55:45.755Z,37.90
2023-11-13T22:04:08.258Z,28.90
2023-11-13T22:12:33.794Z,24.70
2023-11-13T22:21:01.885Z,25.60
2023-11-13T22:29:26.058Z,25.10
2023-11-13T22:37:47.931Z,22.30
2023-11-13T22:46:10.315Z,19.00
2023-11-13T22:54:35.755Z,20.30
2023-11-13T23:02:57.849Z,24.20
2023-11-13T23:11:20.271Z,19.30
2023-11-13T23:19:42.127Z,16.10
2023-11-13T23:28:03.874Z,16.90
2023-11-13T23:36:25.840Z,15.70
2023-11-13T23:44:47.968Z,15.80
2023-11-13T23:53:10.723Z,17.20
